createdAt,value
2023-03-10T00:00:08.923Z,43.10
2023-03-10T00:02:58.621Z,42.90
2023-03-10T00:05:48.059Z,42.90
2023-03-10T00:08:36.520Z,43.00
2023-03-10T00:11:24.981Z,42.90
2023-03-10T00:14:13.387Z,43.00
2023-03-10T00:17:01.740Z,43.00
2023-03-10T00:19:51.407Z,43.00
2023-03-10T00:22:41.760Z,43.00
2023-03-10T00:25:30.038Z,43.00
2023-03-10T00:28:18.306Z,43.00
2023-03-10T00:31:08.899Z,43.00
2023-03-10T00:33:57.561Z,43.00
2023-03-10T00:36:47.114Z,43.00
2023-03-10T00:39:35.380Z,43.00
2023-03-10T00:42:23.668Z,43.00
2023-03-10T00:45:12.379Z,43.00
2023-03-10T00:48:00.625Z,43.00
2023-03-10T00:50:49.187Z,42.80
2023-03-10T00:53:40.469Z,42.90
2023-03-10T00:56:29.599Z,42.90
2023-03-10T00:59:17.870Z,42.90
2023-03-10T01:02:06.465Z,42.90
2023-03-10T01:04:54.744Z,42.90
2023-03-10T01:07:42.996Z,42.90
2023-03-10T01:10:32.593Z,43.00
2023-03-10T01:13:21.045Z,43.00
2023-03-10T01:16:10.005Z,43.00
2023-03-10T01:18:58.846Z,43.00
2023-03-10T01:21:47.086Z,43.00
2023-03-10T01:24:35.279Z,43.00
2023-03-10T01:27:24.948Z,43.00
2023-03-10T01:30:14.573Z,43.00
2023-03-10T01:33:03.037Z,43.00
2023-03-10T01:35:51.262Z,43.00
2023-03-10T01:38:40.131Z,42.90
2023-03-10T01:41:28.420Z,42.90
2023-03-10T01:44:21.071Z,42.90
2023-03-10T01:47:09.438Z,43.00
2023-03-10T01:49:57.815Z,43.00
2023-03-10T01:52:52.552Z,43.00
2023-03-10T01:55:47.649Z,43.00
2023-03-10T01:58:40.592Z,43.00
2023-03-10T02:01:31.712Z,43.00
2023-03-10T02:04:27.323Z,43.00
2023-03-10T02:07:19.848Z,43.00
2023-03-10T02:10:09.773Z,43.00
2023-03-10T02:12:58.097Z,43.00
2023-03-10T02:15:47.156Z,43.00
2023-03-10T02:18:36.864Z,43.00
2023-03-10T02:21:33.821Z,43.00
2023-03-10T02:24:28.448Z,43.00
2023-03-10T02:27:21.070Z,42.90
2023-03-10T02:30:12.521Z,42.90
2023-03-10T02:33:05.077Z,43.00
2023-03-10T02:35:53.957Z,43.00
2023-03-10T02:38:42.172Z,43.00
2023-03-10T02:41:33.054Z,43.00
2023-03-10T02:44:25.019Z,43.00
2023-03-10T02:47:13.634Z,43.00
2023-03-10T02:50:02.557Z,43.00
2023-03-10T02:52:56.999Z,43.00
2023-03-10T02:55:45.627Z,43.00
2023-03-10T02:58:34.360Z,43.00
2023-03-10T03:01:23.993Z,43.00
2023-03-10T03:04:12.348Z,43.00
2023-03-10T03:07:00.685Z,43.00
2023-03-10T03:09:48.976Z,43.10
2023-03-10T03:12:37.160Z,43.00
2023-03-10T03:15:26.307Z,43.00
2023-03-10T03:18:15.939Z,43.00
2023-03-10T03:21:06.505Z,43.00
2023-03-10T03:23:54.692Z,43.00
2023-03-10T03:26:42.899Z,43.00
2023-03-10T03:29:31.178Z,43.00
2023-03-10T03:32:19.472Z,43.00
2023-03-10T03:35:12.742Z,43.00
2023-03-10T03:38:01.731Z,43.10
2023-03-10T03:40:49.980Z,43.10
2023-03-10T03:43:38.381Z,43.10
2023-03-10T03:46:26.704Z,43.10
2023-03-10T03:49:14.990Z,43.10
2023-03-10T03:52:05.321Z,43.10
2023-03-10T03:54:53.615Z,43.10
2023-03-10T03:57:43.011Z,43.10
2023-03-10T04:00:31.396Z,43.00
2023-03-10T04:03:20.009Z,43.00
2023-03-10T04:06:08.972Z,43.00
2023-03-10T04:08:58.520Z,43.00
2023-03-10T04:11:46.765Z,43.10
2023-03-10T04:14:35.283Z,43.10
2023-03-10T04:17:23.507Z,43.10
2023-03-10T04:20:14.323Z,43.10
2023-03-10T04:23:02.703Z,43.10
2023-03-10T04:25:52.334Z,43.10
2023-03-10T04:28:40.898Z,43.20
2023-03-10T04:31:29.300Z,43.20
2023-03-10T04:34:17.639Z,43.20
2023-03-10T04:37:05.991Z,43.30
2023-03-10T04:39:54.267Z,43.30
2023-03-10T04:42:43.904Z,43.30
2023-03-10T04:45:32.520Z,43.40
2023-03-10T04:48:20.741Z,43.20
2023-03-10T04:51:11.330Z,43.20
2023-03-10T04:54:02.526Z,43.20
2023-03-10T04:56:50.784Z,43.20
2023-03-10T04:59:40.393Z,43.30
2023-03-10T05:02:28.709Z,43.20
2023-03-10T05:05:17.235Z,43.20
2023-03-10T05:08:06.799Z,43.30
2023-03-10T05:10:55.051Z,43.30
2023-03-10T05:13:43.387Z,43.40
2023-03-10T05:16:33.035Z,43.40
2023-03-10T05:19:21.396Z,43.40
2023-03-10T05:22:12.520Z,43.50
2023-03-10T05:25:00.896Z,43.40
2023-03-10T05:27:49.146Z,43.40
2023-03-10T05:30:37.469Z,43.40
2023-03-10T05:33:28.937Z,43.30
2023-03-10T05:36:18.570Z,43.30
2023-03-10T05:39:07.288Z,43.30
2023-03-10T05:41:55.599Z,43.30
2023-03-10T05:44:43.832Z,43.40
2023-03-10T05:47:32.290Z,43.30
2023-03-10T05:50:21.942Z,43.40
2023-03-10T05:53:10.423Z,43.40
2023-03-10T05:55:59.100Z,43.90
2023-03-10T05:58:48.403Z,43.80
2023-03-10T06:01:37.267Z,43.90
2023-03-10T06:04:25.716Z,43.90
2023-03-10T06:07:15.457Z,43.80
2023-03-10T06:10:03.824Z,43.80
2023-03-10T06:12:52.171Z,43.80
2023-03-10T06:15:40.414Z,43.80
2023-03-10T06:18:29.952Z,43.70
2023-03-10T06:21:18.292Z,43.80
2023-03-10T06:24:08.133Z,43.90
2023-03-10T06:26:56.528Z,43.90
2023-03-10T06:29:44.752Z,43.90
2023-03-10T06:32:32.960Z,43.90
2023-03-10T06:35:21.340Z,44.10
2023-03-10T06:38:09.586Z,44.60
2023-03-10T06:40:59.373Z,44.50
2023-03-10T06:43:48.011Z,44.50
2023-03-10T06:46:36.326Z,46.20
2023-03-10T06:49:24.557Z,45.60
2023-03-10T06:52:12.744Z,45.40
2023-03-10T06:55:01.536Z,45.20
2023-03-10T06:57:51.134Z,45.10
2023-03-10T07:00:40.444Z,45.00
2023-03-10T07:03:29.765Z,44.90
2023-03-10T07:06:18.090Z,44.90
2023-03-10T07:09:06.740Z,44.80
2023-03-10T07:11:54.925Z,44.80
2023-03-10T07:14:44.559Z,44.90
2023-03-10T07:17:32.863Z,44.70
2023-03-10T07:20:21.191Z,44.70
2023-03-10T07:23:09.517Z,44.70
2023-03-10T07:25:58.676Z,44.70
2023-03-10T07:28:47.830Z,44.60
2023-03-10T07:31:37.862Z,44.60
2023-03-10T07:34:26.119Z,44.60
2023-03-10T07:37:14.417Z,44.50
2023-03-10T07:40:02.641Z,44.50
2023-03-10T07:42:50.942Z,44.50
2023-03-10T07:45:39.694Z,44.50
2023-03-10T07:48:29.406Z,44.50
2023-03-10T07:51:17.796Z,44.40
2023-03-10T07:54:06.167Z,44.40
2023-03-10T07:56:54.342Z,44.30
2023-03-10T07:59:43.411Z,44.20
2023-03-10T08:02:31.725Z,44.30
2023-03-10T08:05:21.577Z,44.30
2023-03-10T08:08:09.963Z,44.10
2023-03-10T08:11:03.873Z,44.30
2023-03-10T08:13:52.568Z,44.30
2023-03-10T08:16:40.922Z,44.40
2023-03-10T08:19:29.669Z,44.40
2023-03-10T08:22:21.614Z,44.40
2023-03-10T08:25:12.580Z,44.40
2023-03-10T08:28:00.856Z,44.30
2023-03-10T08:31:03.121Z,44.30
2023-03-10T08:33:56.695Z,44.30
2023-03-10T08:36:45.589Z,44.40
2023-03-10T08:39:35.384Z,44.50
2023-03-10T08:42:23.858Z,44.60
2023-03-10T08:45:13.292Z,44.70
2023-03-10T08:48:01.637Z,44.70
2023-03-10T08:50:51.231Z,44.70
2023-03-10T08:53:40.336Z,44.70
2023-03-10T08:56:30.400Z,44.70
2023-03-10T08:59:19.403Z,44.80
2023-03-10T09:02:08.176Z,44.60
2023-03-10T09:04:56.768Z,44.60
2023-03-10T09:07:45.044Z,44.60
2023-03-10T09:10:34.023Z,44.60
2023-03-10T09:13:24.726Z,44.60
2023-03-10T09:16:13.869Z,44.40
2023-03-10T09:19:03.276Z,44.30
2023-03-10T09:21:51.489Z,44.30
2023-03-10T09:24:39.859Z,44.20
2023-03-10T09:27:28.284Z,44.20
2023-03-10T09:30:18.197Z,44.40
2023-03-10T09:33:06.945Z,44.40
2023-03-10T09:36:06.558Z,44.70
2023-03-10T09:38:55.325Z,43.80
2023-03-10T09:42:29.109Z,43.40
2023-03-10T09:45:33.131Z,43.10
2023-03-10T09:48:32.577Z,42.80
2023-03-10T09:51:24.766Z,42.30
2023-03-10T09:54:39.516Z,42.30
2023-03-10T09:57:31.593Z,42.10
2023-03-10T10:00:24.039Z,42.20
2023-03-10T10:03:20.655Z,42.20
2023-03-10T10:06:14.572Z,42.20
2023-03-10T10:09:06.046Z,42.20
2023-03-10T10:11:54.289Z,42.20
2023-03-10T10:14:55.044Z,42.30
2023-03-10T10:18:11.795Z,42.20
2023-03-10T10:21:10.829Z,42.10
2023-03-10T10:24:00.486Z,42.30
2023-03-10T10:26:48.754Z,42.30
2023-03-10T10:29:42.368Z,42.20
2023-03-10T10:32:32.323Z,42.20
2023-03-10T10:35:25.115Z,42.10
2023-03-10T10:38:27.008Z,42.00
2023-03-10T10:41:21.550Z,42.30
2023-03-10T10:44:16.300Z,42.30
2023-03-10T10:47:04.889Z,42.30
2023-03-10T10:49:53.125Z,42.20
2023-03-10T10:52:41.581Z,42.20
2023-03-10T10:55:34.540Z,42.20
2023-03-10T10:58:29.566Z,42.10
2023-03-10T11:01:18.485Z,41.90
2023-03-10T11:04:08.361Z,41.80
2023-03-10T11:07:11.880Z,41.80
2023-03-10T11:10:00.229Z,41.60
2023-03-10T11:13:03.214Z,41.60
2023-03-10T11:15:56.393Z,41.60
2023-03-10T11:18:51.976Z,41.50
2023-03-10T11:21:45.921Z,41.50
2023-03-10T11:24:42.318Z,41.40
2023-03-10T11:27:44.450Z,41.40
2023-03-10T11:30:38.187Z,41.40
2023-03-10T11:33:34.380Z,41.40
2023-03-10T11:36:32.068Z,41.50
2023-03-10T11:39:29.655Z,41.50
2023-03-10T11:42:26.833Z,41.50
2023-03-10T11:45:25.454Z,41.30
2023-03-10T11:48:35.017Z,41.30
2023-03-10T11:51:31.085Z,41.40
2023-03-10T11:54:26.606Z,41.70
2023-03-10T11:57:19.071Z,41.80
2023-03-10T12:00:16.594Z,41.80
2023-03-10T12:03:16.095Z,42.00
2023-03-10T12:06:11.751Z,42.00
2023-03-10T12:09:01.633Z,42.00
2023-03-10T12:11:50.705Z,42.00
2023-03-10T12:14:39.057Z,42.10
2023-03-10T12:17:27.991Z,42.30
2023-03-10T12:20:26.875Z,42.30
2023-03-10T12:23:42.233Z,42.30
2023-03-10T12:26:59.354Z,42.30
2023-03-10T12:29:47.729Z,42.10
2023-03-10T12:32:48.504Z,42.20
2023-03-10T12:35:47.555Z,42.10
2023-03-10T12:38:42.750Z,42.20
2023-03-10T12:41:46.498Z,42.20
2023-03-10T12:44:49.084Z,42.40
2023-03-10T12:47:47.480Z,42.30
2023-03-10T12:50:44.936Z,42.20
2023-03-10T12:53:36.880Z,42.20
2023-03-10T12:56:39.956Z,42.20
2023-03-10T12:59:33.056Z,42.10
2023-03-10T13:02:33.320Z,42.00
2023-03-10T13:05:26.105Z,41.90
2023-03-10T13:08:19.356Z,41.60
2023-03-10T13:11:13.512Z,41.40
2023-03-10T13:14:08.748Z,41.20
2023-03-10T13:17:00.245Z,41.00
2023-03-10T13:19:58.600Z,41.00
2023-03-10T13:22:54.831Z,41.80
2023-03-10T13:25:53.111Z,43.00
2023-03-10T13:28:51.389Z,43.20
2023-03-10T13:31:41.255Z,43.00
2023-03-10T13:34:31.616Z,42.80
2023-03-10T13:37:19.949Z,42.80
2023-03-10T13:40:10.315Z,42.50
2023-03-10T13:42:58.575Z,42.40
2023-03-10T13:45:47.045Z,42.30
2023-03-10T13:48:37.819Z,42.20
2023-03-10T13:51:31.917Z,42.10
2023-03-10T13:54:22.758Z,41.90
2023-03-10T13:57:19.072Z,41.90
2023-03-10T14:00:12.255Z,41.70
2023-03-10T14:03:00.724Z,41.70
2023-03-10T14:05:50.880Z,41.70
2023-03-10T14:08:39.333Z,41.70
2023-03-10T14:11:37.160Z,41.60
2023-03-10T14:14:30.610Z,41.60
2023-03-10T14:17:33.922Z,41.60
2023-03-10T14:20:27.507Z,41.40
2023-03-10T14:23:29.211Z,41.60
2023-03-10T14:26:18.896Z,41.80
2023-03-10T14:29:15.102Z,41.90
2023-03-10T14:32:03.290Z,41.90
2023-03-10T14:34:51.631Z,41.90
2023-03-10T14:37:39.981Z,41.90
2023-03-10T14:40:29.753Z,42.00
2023-03-10T14:43:21.529Z,42.00
2023-03-10T14:46:12.880Z,42.00
2023-03-10T14:49:01.300Z,42.10
2023-03-10T14:51:49.756Z,42.10
2023-03-10T14:54:38.036Z,42.10
2023-03-10T14:57:28.738Z,42.20
2023-03-10T15:00:19.534Z,42.20
2023-03-10T15:03:07.746Z,42.30
2023-03-10T15:05:55.968Z,42.30
2023-03-10T15:08:44.392Z,42.40
2023-03-10T15:11:37.268Z,42.40
2023-03-10T15:14:27.602Z,42.40
2023-03-10T15:17:16.025Z,42.40
2023-03-10T15:20:08.502Z,42.40
2023-03-10T15:22:56.729Z,42.50
2023-03-10T15:25:46.107Z,42.50
2023-03-10T15:28:42.349Z,42.60
2023-03-10T15:31:32.051Z,42.60
2023-03-10T15:34:20.746Z,42.70
2023-03-10T15:37:09.012Z,42.70
2023-03-10T15:39:57.296Z,42.80
2023-03-10T15:42:46.548Z,42.80
2023-03-10T15:45:34.894Z,42.80
2023-03-10T15:48:24.530Z,42.90
2023-03-10T15:51:17.513Z,42.90
2023-03-10T15:54:05.828Z,43.00
2023-03-10T15:56:54.103Z,43.00
2023-03-10T15:59:42.786Z,43.10
2023-03-10T16:02:31.034Z,43.10
2023-03-10T16:05:21.659Z,43.10
2023-03-10T16:08:09.930Z,43.20
2023-03-10T16:10:58.143Z,43.30
2023-03-10T16:13:55.834Z,43.40
2023-03-10T16:16:44.186Z,43.40
2023-03-10T16:19:39.826Z,43.50
2023-03-10T16:22:35.858Z,43.60
2023-03-10T16:25:30.825Z,43.60
2023-03-10T16:28:25.846Z,43.60
2023-03-10T16:31:21.883Z,43.70
2023-03-10T16:34:16.854Z,43.70
2023-03-10T16:37:14.846Z,43.80
2023-03-10T16:40:17.858Z,43.80
2023-03-10T16:43:06.348Z,43.80
2023-03-10T16:46:00.906Z,43.90
2023-03-10T16:48:49.631Z,44.00
2023-03-10T16:51:45.850Z,44.00
2023-03-10T16:54:34.040Z,44.00
2023-03-10T16:57:23.600Z,44.00
2023-03-10T17:00:13.618Z,44.10
2023-03-10T17:03:01.816Z,44.10
2023-03-10T17:05:53.735Z,44.10
2023-03-10T17:08:42.525Z,44.10
2023-03-10T17:11:33.606Z,44.20
2023-03-10T17:14:23.678Z,44.20
2023-03-10T17:17:11.914Z,44.20
2023-03-10T17:20:00.959Z,44.30
2023-03-10T17:22:49.952Z,44.30
2023-03-10T17:25:39.382Z,44.40
2023-03-10T17:28:27.546Z,44.40
2023-03-10T17:31:20.734Z,44.40
2023-03-10T17:34:11.777Z,44.50
2023-03-10T17:36:59.992Z,44.50
2023-03-10T17:39:48.998Z,44.50
2023-03-10T17:42:37.203Z,44.60
2023-03-10T17:45:25.468Z,44.60
2023-03-10T17:48:15.009Z,44.60
2023-03-10T17:51:03.912Z,44.60
2023-03-10T17:53:52.744Z,44.60
2023-03-10T17:56:41.164Z,44.60
2023-03-10T17:59:29.534Z,44.60
2023-03-10T18:02:17.816Z,44.70
2023-03-10T18:05:08.621Z,44.60
2023-03-10T18:07:58.776Z,44.60
2023-03-10T18:10:47.104Z,44.70
2023-03-10T18:13:35.709Z,44.70
2023-03-10T18:16:25.906Z,44.70
2023-03-10T18:19:21.363Z,44.70
2023-03-10T18:22:10.953Z,44.70
2023-03-10T18:25:01.581Z,44.70
2023-03-10T18:27:50.022Z,44.80
2023-03-10T18:30:38.560Z,44.70
2023-03-10T18:33:26.872Z,44.60
2023-03-10T18:36:17.233Z,44.70
2023-03-10T18:39:07.944Z,44.70
2023-03-10T18:41:56.464Z,44.70
2023-03-10T18:44:46.703Z,44.70
2023-03-10T18:47:34.972Z,44.80
2023-03-10T18:50:23.283Z,44.80
2023-03-10T18:53:11.581Z,44.80
2023-03-10T18:56:01.222Z,44.80
2023-03-10T18:58:49.645Z,44.90
2023-03-10T19:01:38.162Z,44.90
2023-03-10T19:04:26.579Z,44.90
2023-03-10T19:07:15.897Z,44.90
2023-03-10T19:10:04.259Z,44.90
2023-03-10T19:12:54.040Z,44.90
2023-03-10T19:15:42.452Z,44.90
2023-03-10T19:18:30.685Z,44.90
2023-03-10T19:21:25.906Z,44.90
2023-03-10T19:24:14.237Z,44.70
2023-03-10T19:27:10.908Z,44.80
2023-03-10T19:30:08.921Z,44.80
2023-03-10T19:32:57.143Z,44.80
2023-03-10T19:35:51.955Z,44.80
2023-03-10T19:38:53.913Z,44.80
2023-03-10T19:41:42.201Z,44.90
2023-03-10T19:44:36.966Z,44.80
2023-03-10T19:47:27.047Z,44.90
2023-03-10T19:50:24.953Z,44.90
2023-03-10T19:53:20.216Z,44.90
2023-03-10T19:56:16.998Z,44.90
2023-03-10T19:59:12.922Z,44.90
2023-03-10T20:02:02.526Z,44.90
2023-03-10T20:04:58.941Z,44.90
2023-03-10T20:07:53.936Z,44.90
2023-03-10T20:10:48.947Z,44.70
2023-03-10T20:13:43.946Z,44.80
2023-03-10T20:16:40.042Z,44.80
2023-03-10T20:19:34.949Z,44.80
2023-03-10T20:22:30.963Z,44.80
2023-03-10T20:25:28.100Z,44.80
2023-03-10T20:28:24.978Z,44.90
2023-03-10T20:31:16.583Z,44.80
2023-03-10T20:34:13.946Z,44.90
2023-03-10T20:37:09.146Z,44.80
2023-03-10T20:40:11.939Z,44.90
2023-03-10T20:43:00.630Z,44.90
2023-03-10T20:45:58.005Z,44.90
2023-03-10T20:48:46.496Z,44.90
2023-03-10T20:51:40.935Z,44.90
2023-03-10T20:54:29.190Z,44.90
2023-03-10T20:57:24.955Z,44.90
2023-03-10T21:00:20.974Z,45.00
2023-03-10T21:03:09.833Z,44.80
2023-03-10T21:06:04.964Z,44.80
2023-03-10T21:09:00.133Z,44.80
2023-03-10T21:11:54.937Z,44.80
2023-03-10T21:14:44.649Z,44.80
2023-03-10T21:17:38.979Z,44.80
2023-03-10T21:20:27.390Z,44.90
2023-03-10T21:23:22.020Z,44.80
2023-03-10T21:26:12.206Z,44.90
2023-03-10T21:29:07.999Z,44.90
2023-03-10T21:32:04.002Z,44.90
2023-03-10T21:34:52.273Z,44.90
2023-03-10T21:37:42.228Z,44.80
2023-03-10T21:40:32.112Z,44.80
2023-03-10T21:43:22.652Z,44.80
2023-03-10T21:46:11.195Z,44.80
2023-03-10T21:49:01.008Z,44.80
2023-03-10T21:51:49.397Z,44.70
2023-03-10T21:54:37.711Z,44.70
2023-03-10T21:57:26.128Z,44.70
2023-03-10T22:00:15.448Z,44.70
2023-03-10T22:03:04.171Z,44.70
2023-03-10T22:05:53.750Z,44.70
2023-03-10T22:08:42.043Z,44.80
2023-03-10T22:11:30.422Z,44.70
2023-03-10T22:14:18.776Z,44.80
2023-03-10T22:17:07.340Z,44.80
2023-03-10T22:19:55.848Z,44.80
2023-03-10T22:22:45.665Z,44.90
2023-03-10T22:25:34.846Z,44.80
2023-03-10T22:28:23.105Z,44.70
2023-03-10T22:31:11.710Z,44.70
2023-03-10T22:33:59.956Z,44.70
2023-03-10T22:36:48.185Z,44.70
2023-03-10T22:39:38.592Z,44.60
2023-03-10T22:42:26.931Z,44.60
2023-03-10T22:45:19.596Z,44.60
2023-03-10T22:48:08.353Z,44.60
2023-03-10T22:50:56.671Z,44.70
2023-03-10T22:53:46.507Z,44.70
2023-03-10T22:56:36.209Z,44.70
2023-03-10T22:59:24.481Z,44.70
2023-03-10T23:02:12.686Z,44.70
2023-03-10T23:05:00.928Z,44.80
2023-03-10T23:07:49.862Z,44.70
2023-03-10T23:10:38.504Z,44.80
2023-03-10T23:13:28.105Z,44.80
2023-03-10T23:16:18.198Z,44.80
2023-03-10T23:19:08.685Z,44.80
2023-03-10T23:21:57.044Z,44.70
2023-03-10T23:24:45.376Z,44.70
2023-03-10T23:27:33.679Z,44.80
2023-03-10T23:30:23.363Z,44.70
2023-03-10T23:33:14.486Z,44.70
2023-03-10T23:36:02.813Z,44.80
2023-03-10T23:38:51.118Z,44.80
2023-03-10T23:41:39.363Z,44.80
2023-03-10T23:44:27.584Z,44.80
2023-03-10T23:47:17.302Z,44.80
2023-03-10T23:50:08.457Z,44.80
2023-03-10T23:52:57.265Z,44.80
2023-03-10T23:55:47.980Z,44.80
2023-03-10T23:58:36.971Z,44.90
